Suehiro Maru No.8 — JK5423 — position and weather

sailwx.info

Track history (hours):
 
Tides and Currents Weather Stations Pressure Air Temp Water Temp Dewpoint Dewpoint Depression Visibility Wind Speed Wind Dir Waves Ship Positions

Suehiro Maru No.8

Last reported at 2016-Apr-30 15:18 UTC. Time now 2016-Apr-30 16:55 UTC.
Position N 35°14' E 140°29'.

Length 88 m; draft 3.4 m.

Type: Cargo ship. MMSI: 431400446.

Date/timePositionNaut miles runAvg speedWind from/ knotsBaromVisibWave heightAir tempDewpointWater temp
2016-Apr-30 15:18N 35°14' E 140°29'911.6
2016-Apr-30 14:30N 35°22' E 140°35'1111.9
2016-Apr-30 13:33N 35°31' E 140°44'1211.8
2016-Apr-30 12:32N 35°40' E 140°53'1511.6
2016-Apr-30 11:13N 35°54' E 140°47'4 6.5
2016-Apr-30 10:33N 35°56' E 140°41'0 0.0
2016-Apr-30 08:31N 35°56' E 140°41'0 0.0
2016-Apr-30 07:03N 35°56' E 140°41'0 0.0
2016-Apr-30 06:33N 35°56' E 140°41'0 0.0
2016-Apr-30 05:32N 35°56' E 140°41'3 3.3
2016-Apr-30 04:33N 35°58' E 140°44'1311.8
2016-Apr-30 03:27N 35°47' E 140°52'1010.7
2016-Apr-30 02:29N 35°37' E 140°50'1112.1
2016-Apr-30 01:33N 35°28' E 140°41'1411.9
2016-Apr-30 00:21N 35°17' E 140°31'2212.1
2016-Apr-29 22:33N 35°02' E 140°12'1211.5
2016-Apr-29 21:32N 34°55' E 139°60'1211.8
2016-Apr-29 20:33N 34°51' E 139°47'24110.4
2016-Apr-28 21:22N 33°59' E 135°02'1012.6
2016-Apr-28 20:33N 34°09' E 135°04'6 6.2
2016-Apr-28 19:33N 34°15' E 135°07'0 0.0
2016-Apr-28 18:33N 34°15' E 135°07'0 0.0
2016-Apr-28 17:33N 34°15' E 135°07'0 0.0
2016-Apr-28 16:33N 34°15' E 135°07'0 0.0
2016-Apr-28 15:33N 34°15' E 135°07'0 0.0
2016-Apr-28 14:33N 34°15' E 135°07'0 0.0
2016-Apr-28 13:33N 34°15' E 135°07'0 0.0
2016-Apr-28 12:33N 34°15' E 135°07'0 0.0
2016-Apr-28 11:33N 34°15' E 135°07'0 0.0
2016-Apr-28 10:33N 34°15' E 135°07'0 0.0
2016-Apr-28 09:33N 34°15' E 135°07'0 0.0
2016-Apr-28 08:33N 34°15' E 135°07'0 0.0
2016-Apr-28 07:33N 34°15' E 135°07'7 7.2
2016-Apr-28 06:33N 34°13' E 134°58'  
2016-Apr-25 08:33N 35°03' E 139°34'1212.3
2016-Apr-25 07:33N 35°11' E 139°45'1110.8
2016-Apr-25 06:33N 35°22' E 139°42'1110.5
2016-Apr-25 05:33N 35°31' E 139°50'4 3.9
2016-Apr-25 04:33N 35°34' E 139°51'3 3.5
2016-Apr-25 03:33N 35°37' E 139°49'0 0.0
2016-Apr-25 02:33N 35°37' E 139°49'0 0.0
2016-Apr-25 01:33N 35°37' E 139°49'0 0.0
2016-Apr-25 00:33N 35°37' E 139°49'0 0.0
2016-Apr-24 23:33N 35°37' E 139°49'0 0.0
2016-Apr-24 22:33N 35°37' E 139°49'2 1.6
2016-Apr-24 21:33N 35°36' E 139°50'2 2.3
2016-Apr-24 20:33N 35°35' E 139°52'0 0.0
2016-Apr-24 19:33N 35°35' E 139°52'0 0.0
2016-Apr-24 18:33N 35°35' E 139°52'0 0.0
2016-Apr-24 17:33N 35°35' E 139°52'0 0.0
2016-Apr-24 16:33N 35°35' E 139°52'0 0.0
2016-Apr-24 15:33N 35°35' E 139°52'0 0.0
2016-Apr-24 14:33N 35°35' E 139°52'0 0.0
2016-Apr-24 13:33N 35°35' E 139°52'0 0.0
2016-Apr-24 12:33N 35°35' E 139°52'0 0.0
2016-Apr-24 11:33N 35°35' E 139°52'0 0.0
2016-Apr-24 10:33N 35°35' E 139°52'0 0.1
2016-Apr-24 09:33N 35°35' E 139°52'0 0.0
2016-Apr-24 08:33N 35°35' E 139°52'1 0.5
2016-Apr-24 07:33N 35°34' E 139°52'1212.4
2016-Apr-24 06:33N 35°23' E 139°46'1312.8
2016-Apr-24 05:33N 35°10' E 139°47'1110.4
2016-Apr-24 04:33N 35°00' E 139°51'0 0.0
2016-Apr-24 03:34N 35°00' E 139°51'0 0.0
2016-Apr-24 02:33N 35°00' E 139°51'0 0.0
2016-Apr-24 01:34N 35°00' E 139°51'0 0.0
2016-Apr-24 00:33N 35°00' E 139°51'0 0.0
2016-Apr-23 23:33N 35°00' E 139°51'0 0.1
2016-Apr-23 22:33N 35°00' E 139°51'0 0.0
2016-Apr-23 21:30N 35°00' E 139°51'0 0.0
2016-Apr-23 20:20N 35°00' E 139°51'0 0.0
2016-Apr-23 19:30N 35°00' E 139°51'0 0.0
2016-Apr-23 18:33N 35°00' E 139°51'0 0.0
2016-Apr-23 17:33N 35°00' E 139°51'0 0.0
2016-Apr-23 16:33N 35°00' E 139°51'0 0.0
2016-Apr-23 15:33N 35°00' E 139°51'0 0.0
2016-Apr-23 14:11N 35°00' E 139°51'0 0.0
2016-Apr-23 13:31N 35°00' E 139°51'0 0.0
2016-Apr-23 12:33N 35°00' E 139°51'0 0.0
2016-Apr-23 11:33N 35°00' E 139°51'0 0.0
2016-Apr-23 10:33N 35°00' E 139°51'0 0.0
2016-Apr-23 09:34N 35°00' E 139°51'0 0.0
2016-Apr-23 08:33N 35°00' E 139°51'0 0.0
2016-Apr-23 07:32N 35°00' E 139°51'0 0.0
2016-Apr-23 06:12N 35°00' E 139°51'0 0.0
2016-Apr-23 05:33N 35°00' E 139°51'0 0.1
2016-Apr-23 04:18N 35°00' E 139°51'0 0.0
2016-Apr-23 03:21N 35°00' E 139°51'0 0.1
2016-Apr-23 02:31N 35°00' E 139°51'0 0.0
2016-Apr-23 01:33N 35°00' E 139°51'0 0.3
2016-Apr-23 00:33N 35°00' E 139°51'7 7.3
2016-Apr-22 23:33N 34°53' E 139°48'1412.1
2016-Apr-22 22:26N 34°57' E 140°03'1212.3
2016-Apr-22 21:27N 35°04' E 140°15'1611.6
2016-Apr-22 20:05N 35°15' E 140°30'1011.8
2016-Apr-22 19:16N 35°22' E 140°37'912.6
2016-Apr-22 18:33N 35°30' E 140°43'1312.6
2016-Apr-22 17:33N 35°40' E 140°53'1312.3
2016-Apr-22 16:31N 35°52' E 140°48'6 6.5
2016-Apr-22 15:32N 35°56' E 140°41'0 0.0
2016-Apr-22 14:32N 35°56' E 140°41'0 0.0
2016-Apr-22 13:33N 35°56' E 140°41'0 0.0
2016-Apr-22 12:33N 35°56' E 140°41'0 0.0
2016-Apr-22 11:33N 35°56' E 140°41'0 0.0
2016-Apr-22 10:27N 35°56' E 140°41'0 0.0
2016-Apr-22 09:33N 35°56' E 140°41'2 1.8
2016-Apr-22 08:33N 35°57' E 140°42'0 0.0
2016-Apr-22 07:32N 35°57' E 140°42'0 0.0
2016-Apr-22 06:33N 35°57' E 140°42'0 0.0
2016-Apr-22 05:32N 35°57' E 140°42'0 0.0
2016-Apr-22 04:33N 35°57' E 140°42'0 0.0
2016-Apr-22 03:33N 35°57' E 140°42'0 0.0
2016-Apr-22 02:34N 35°57' E 140°42'0 0.0
2016-Apr-22 01:31N 35°57' E 140°42'0 0.1
2016-Apr-22 00:33N 35°57' E 140°42'0 0.0
2016-Apr-21 23:33N 35°57' E 140°42'0 0.1
2016-Apr-21 22:28N 35°57' E 140°42'0 0.1
2016-Apr-21 21:33N 35°57' E 140°42'0 0.0
2016-Apr-21 20:33N 35°57' E 140°42'0 0.0
2016-Apr-21 19:33N 35°57' E 140°42'0 0.0
2016-Apr-21 18:33N 35°57' E 140°42'0 0.0
2016-Apr-21 17:33N 35°57' E 140°42'0 0.1
2016-Apr-21 16:34N 35°57' E 140°42'0 0.0
2016-Apr-21 15:33N 35°57' E 140°42'0 0.0
2016-Apr-21 14:33N 35°57' E 140°42'0 0.0
2016-Apr-21 13:17N 35°57' E 140°42'0 0.1
2016-Apr-21 12:32N 35°58' E 140°42'0 0.0
2016-Apr-21 11:33N 35°58' E 140°42'0 0.0
2016-Apr-21 10:33N 35°58' E 140°42'0 0.0
2016-Apr-21 09:32N 35°58' E 140°42'0 0.0
2016-Apr-21 07:32N 35°57' E 140°42'0 0.0
2016-Apr-21 06:34N 35°57' E 140°42'3 2.9
2016-Apr-21 05:28N 35°57' E 140°46'1611.5
2016-Apr-21 04:03N 35°42' E 140°54'611.9
2016-Apr-21 03:33N 35°37' E 140°51'1312.8
2016-Apr-21 02:33N 35°26' E 140°42'1312.5
2016-Apr-21 01:30N 35°16' E 140°32'1714.1
2016-Apr-21 00:16N 35°04' E 140°17'912.7
2016-Apr-20 23:33N 34°59' E 140°08'1612.1
2016-Apr-20 22:12N 34°51' E 139°50'  
Track history (hours):
 
Tides and Currents Weather Stations Pressure Air Temp Water Temp Dewpoint Dewpoint Depression Visibility Wind Speed Wind Dir Waves Ship Positions

Suehiro Maru No.8

Last reported at 2016-Apr-30 15:18 UTC. Time now 2016-Apr-30 16:55 UTC.
Position N 35°14' E 140°29'.

Length 88 m; draft 3.4 m.

Type: Cargo ship. MMSI: 431400446.

Date/timePositionNaut miles runAvg speedWind from/ knotsBaromVisibWave heightAir tempDewpointWater temp
2016-Apr-30 15:18N 35°14' E 140°29'911.6
2016-Apr-30 14:30N 35°22' E 140°35'1111.9
2016-Apr-30 13:33N 35°31' E 140°44'1211.8
2016-Apr-30 12:32N 35°40' E 140°53'1511.6
2016-Apr-30 11:13N 35°54' E 140°47'4 6.5
2016-Apr-30 10:33N 35°56' E 140°41'0 0.0
2016-Apr-30 08:31N 35°56' E 140°41'0 0.0
2016-Apr-30 07:03N 35°56' E 140°41'0 0.0
2016-Apr-30 06:33N 35°56' E 140°41'0 0.0
2016-Apr-30 05:32N 35°56' E 140°41'3 3.3
2016-Apr-30 04:33N 35°58' E 140°44'1311.8
2016-Apr-30 03:27N 35°47' E 140°52'1010.7
2016-Apr-30 02:29N 35°37' E 140°50'1112.1
2016-Apr-30 01:33N 35°28' E 140°41'1411.9
2016-Apr-30 00:21N 35°17' E 140°31'2212.1
2016-Apr-29 22:33N 35°02' E 140°12'1211.5
2016-Apr-29 21:32N 34°55' E 139°60'1211.8
2016-Apr-29 20:33N 34°51' E 139°47'24110.4
2016-Apr-28 21:22N 33°59' E 135°02'1012.6
2016-Apr-28 20:33N 34°09' E 135°04'6 6.2
2016-Apr-28 19:33N 34°15' E 135°07'0 0.0
2016-Apr-28 18:33N 34°15' E 135°07'0 0.0
2016-Apr-28 17:33N 34°15' E 135°07'0 0.0
2016-Apr-28 16:33N 34°15' E 135°07'0 0.0
2016-Apr-28 15:33N 34°15' E 135°07'0 0.0
2016-Apr-28 14:33N 34°15' E 135°07'0 0.0
2016-Apr-28 13:33N 34°15' E 135°07'0 0.0
2016-Apr-28 12:33N 34°15' E 135°07'0 0.0
2016-Apr-28 11:33N 34°15' E 135°07'0 0.0
2016-Apr-28 10:33N 34°15' E 135°07'0 0.0
2016-Apr-28 09:33N 34°15' E 135°07'0 0.0
2016-Apr-28 08:33N 34°15' E 135°07'0 0.0
2016-Apr-28 07:33N 34°15' E 135°07'7 7.2
2016-Apr-28 06:33N 34°13' E 134°58'  
2016-Apr-25 08:33N 35°03' E 139°34'1212.3
2016-Apr-25 07:33N 35°11' E 139°45'1110.8
2016-Apr-25 06:33N 35°22' E 139°42'1110.5
2016-Apr-25 05:33N 35°31' E 139°50'4 3.9
2016-Apr-25 04:33N 35°34' E 139°51'3 3.5
2016-Apr-25 03:33N 35°37' E 139°49'0 0.0
2016-Apr-25 02:33N 35°37' E 139°49'0 0.0
2016-Apr-25 01:33N 35°37' E 139°49'0 0.0
2016-Apr-25 00:33N 35°37' E 139°49'0 0.0
2016-Apr-24 23:33N 35°37' E 139°49'0 0.0
2016-Apr-24 22:33N 35°37' E 139°49'2 1.6
2016-Apr-24 21:33N 35°36' E 139°50'2 2.3
2016-Apr-24 20:33N 35°35' E 139°52'0 0.0
2016-Apr-24 19:33N 35°35' E 139°52'0 0.0
2016-Apr-24 18:33N 35°35' E 139°52'0 0.0
2016-Apr-24 17:33N 35°35' E 139°52'0 0.0
2016-Apr-24 16:33N 35°35' E 139°52'0 0.0
2016-Apr-24 15:33N 35°35' E 139°52'0 0.0
2016-Apr-24 14:33N 35°35' E 139°52'0 0.0
2016-Apr-24 13:33N 35°35' E 139°52'0 0.0
2016-Apr-24 12:33N 35°35' E 139°52'0 0.0
2016-Apr-24 11:33N 35°35' E 139°52'0 0.0
2016-Apr-24 10:33N 35°35' E 139°52'0 0.1
2016-Apr-24 09:33N 35°35' E 139°52'0 0.0
2016-Apr-24 08:33N 35°35' E 139°52'1 0.5
2016-Apr-24 07:33N 35°34' E 139°52'1212.4
2016-Apr-24 06:33N 35°23' E 139°46'1312.8
2016-Apr-24 05:33N 35°10' E 139°47'1110.4
2016-Apr-24 04:33N 35°00' E 139°51'0 0.0
2016-Apr-24 03:34N 35°00' E 139°51'0 0.0
2016-Apr-24 02:33N 35°00' E 139°51'0 0.0
2016-Apr-24 01:34N 35°00' E 139°51'0 0.0
2016-Apr-24 00:33N 35°00' E 139°51'0 0.0
2016-Apr-23 23:33N 35°00' E 139°51'0 0.1
2016-Apr-23 22:33N 35°00' E 139°51'0 0.0
2016-Apr-23 21:30N 35°00' E 139°51'0 0.0
2016-Apr-23 20:20N 35°00' E 139°51'0 0.0
2016-Apr-23 19:30N 35°00' E 139°51'0 0.0
2016-Apr-23 18:33N 35°00' E 139°51'0 0.0
2016-Apr-23 17:33N 35°00' E 139°51'0 0.0
2016-Apr-23 16:33N 35°00' E 139°51'0 0.0
2016-Apr-23 15:33N 35°00' E 139°51'0 0.0
2016-Apr-23 14:11N 35°00' E 139°51'0 0.0
2016-Apr-23 13:31N 35°00' E 139°51'0 0.0
2016-Apr-23 12:33N 35°00' E 139°51'0 0.0
2016-Apr-23 11:33N 35°00' E 139°51'0 0.0
2016-Apr-23 10:33N 35°00' E 139°51'0 0.0
2016-Apr-23 09:34N 35°00' E 139°51'0 0.0
2016-Apr-23 08:33N 35°00' E 139°51'0 0.0
2016-Apr-23 07:32N 35°00' E 139°51'0 0.0
2016-Apr-23 06:12N 35°00' E 139°51'0 0.0
2016-Apr-23 05:33N 35°00' E 139°51'0 0.1
2016-Apr-23 04:18N 35°00' E 139°51'0 0.0
2016-Apr-23 03:21N 35°00' E 139°51'0 0.1
2016-Apr-23 02:31N 35°00' E 139°51'0 0.0
2016-Apr-23 01:33N 35°00' E 139°51'0 0.3
2016-Apr-23 00:33N 35°00' E 139°51'7 7.3
2016-Apr-22 23:33N 34°53' E 139°48'1412.1
2016-Apr-22 22:26N 34°57' E 140°03'1212.3
2016-Apr-22 21:27N 35°04' E 140°15'1611.6
2016-Apr-22 20:05N 35°15' E 140°30'1011.8
2016-Apr-22 19:16N 35°22' E 140°37'912.6
2016-Apr-22 18:33N 35°30' E 140°43'1312.6
2016-Apr-22 17:33N 35°40' E 140°53'1312.3
2016-Apr-22 16:31N 35°52' E 140°48'6 6.5
2016-Apr-22 15:32N 35°56' E 140°41'0 0.0
2016-Apr-22 14:32N 35°56' E 140°41'0 0.0
2016-Apr-22 13:33N 35°56' E 140°41'0 0.0
2016-Apr-22 12:33N 35°56' E 140°41'0 0.0
2016-Apr-22 11:33N 35°56' E 140°41'0 0.0
2016-Apr-22 10:27N 35°56' E 140°41'0 0.0
2016-Apr-22 09:33N 35°56' E 140°41'2 1.8
2016-Apr-22 08:33N 35°57' E 140°42'0 0.0
2016-Apr-22 07:32N 35°57' E 140°42'0 0.0
2016-Apr-22 06:33N 35°57' E 140°42'0 0.0
2016-Apr-22 05:32N 35°57' E 140°42'0 0.0
2016-Apr-22 04:33N 35°57' E 140°42'0 0.0
2016-Apr-22 03:33N 35°57' E 140°42'0 0.0
2016-Apr-22 02:34N 35°57' E 140°42'0 0.0
2016-Apr-22 01:31N 35°57' E 140°42'0 0.1
2016-Apr-22 00:33N 35°57' E 140°42'0 0.0
2016-Apr-21 23:33N 35°57' E 140°42'0 0.1
2016-Apr-21 22:28N 35°57' E 140°42'0 0.1
2016-Apr-21 21:33N 35°57' E 140°42'0 0.0
2016-Apr-21 20:33N 35°57' E 140°42'0 0.0
2016-Apr-21 19:33N 35°57' E 140°42'0 0.0
2016-Apr-21 18:33N 35°57' E 140°42'0 0.0
2016-Apr-21 17:33N 35°57' E 140°42'0 0.1
2016-Apr-21 16:34N 35°57' E 140°42'0 0.0
2016-Apr-21 15:33N 35°57' E 140°42'0 0.0
2016-Apr-21 14:33N 35°57' E 140°42'0 0.0
2016-Apr-21 13:17N 35°57' E 140°42'0 0.1
2016-Apr-21 12:32N 35°58' E 140°42'0 0.0
2016-Apr-21 11:33N 35°58' E 140°42'0 0.0
2016-Apr-21 10:33N 35°58' E 140°42'0 0.0
2016-Apr-21 09:32N 35°58' E 140°42'0 0.0
2016-Apr-21 07:32N 35°57' E 140°42'0 0.0
2016-Apr-21 06:34N 35°57' E 140°42'3 2.9
2016-Apr-21 05:28N 35°57' E 140°46'1611.5
2016-Apr-21 04:03N 35°42' E 140°54'611.9
2016-Apr-21 03:33N 35°37' E 140°51'1312.8
2016-Apr-21 02:33N 35°26' E 140°42'1312.5
2016-Apr-21 01:30N 35°16' E 140°32'1714.1
2016-Apr-21 00:16N 35°04' E 140°17'912.7
2016-Apr-20 23:33N 34°59' E 140°08'1612.1
2016-Apr-20 22:12N 34°51' E 139°50'  

Dump ship's entire track history